Time;durP1;ratioP1;P1;durP2;ratioP2;P2;SDS_P1;SDS_P2;PMS_P1;PMS_P2;Temp;Humidity;BMP_temperature;BMP_pressure;BME280_temperature;BME280_humidity;BME280_pressure;Samples;Min_cycle;Max_cycle;Signal;HPM_P1;HPM_P2
2021/03/24 00:01:26;;;;;;;12.90;6.90;;;3.40;62.20;;;;;;5030771;28;20053;-68
2021/03/24 00:04:31;;;;;;;21.83;10.43;;;3.40;63.60;;;;;;5030248;28;20040;-68
2021/03/24 00:07:35;;;;;;;14.65;8.32;;;3.30;65.40;;;;;;5029505;28;20036;-68
2021/03/24 00:10:40;;;;;;;19.13;8.45;;;3.30;64.80;;;;;;5026335;28;20045;-68
2021/03/24 00:13:45;;;;;;;12.20;7.40;;;3.20;64.30;;;;;;5029736;28;20060;-68
2021/03/24 00:16:49;;;;;;;16.38;9.70;;;3.20;64.60;;;;;;5029854;28;20384;-68
2021/03/24 00:19:54;;;;;;;13.52;8.38;;;3.20;64.80;;;;;;5030781;28;20052;-68
2021/03/24 00:22:59;;;;;;;12.55;6.35;;;3.20;63.80;;;;;;5029389;28;20052;-68
2021/03/24 00:26:05;;;;;;;18.27;6.43;;;3.20;63.40;;;;;;5029663;28;20045;-68
2021/03/24 00:29:09;;;;;;;20.77;8.25;;;3.20;64.10;;;;;;5030226;28;20049;-68
2021/03/24 00:32:13;;;;;;;12.82;7.65;;;3.30;63.80;;;;;;5029964;28;20048;-68
2021/03/24 00:35:18;;;;;;;11.75;7.47;;;3.30;63.80;;;;;;5029667;28;20424;-68
2021/03/24 00:38:24;;;;;;;13.05;8.55;;;3.40;63.70;;;;;;5032735;28;20040;-68
2021/03/24 00:41:29;;;;;;;17.48;8.18;;;3.40;63.80;;;;;;5034366;28;20384;-68
2021/03/24 00:44:34;;;;;;;12.73;7.63;;;3.40;64.10;;;;;;5033041;28;20044;-68
2021/03/24 00:47:39;;;;;;;16.55;7.85;;;3.30;64.40;;;;;;5029267;28;20049;-68
2021/03/24 00:50:44;;;;;;;13.95;8.57;;;3.20;64.70;;;;;;5034432;28;20519;-68
2021/03/24 00:53:48;;;;;;;14.15;8.00;;;3.10;65.60;;;;;;5023294;28;20048;-68
2021/03/24 00:56:54;;;;;;;13.07;7.45;;;3.10;65.10;;;;;;5033539;28;20048;-69
2021/03/24 00:59:58;;;;;;;12.48;7.75;;;2.90;65.10;;;;;;5033253;28;20510;-68
2021/03/24 01:03:04;;;;;;;13.80;7.57;;;2.90;66.20;;;;;;5031754;28;20040;-68
2021/03/24 01:06:08;;;;;;;10.10;6.60;;;2.90;65.70;;;;;;5032503;28;20048;-68
2021/03/24 01:09:13;;;;;;;13.23;6.82;;;2.80;65.10;;;;;;5033275;28;20372;-68
2021/03/24 01:12:18;;;;;;;16.25;7.28;;;2.80;65.00;;;;;;5033842;28;20637;-68
2021/03/24 01:15:23;;;;;;;14.30;8.68;;;2.70;66.90;;;;;;5033288;28;20056;-68
2021/03/24 01:18:27;;;;;;;17.08;10.18;;;2.50;69.40;;;;;;5033449;28;20048;-67
2021/03/24 01:21:31;;;;;;;19.75;10.27;;;2.30;70.30;;;;;;5028950;28;20402;-68
2021/03/24 01:24:36;;;;;;;20.80;12.15;;;2.20;71.50;;;;;;5033169;28;20048;-69
2021/03/24 01:27:40;;;;;;;18.52;10.07;;;2.10;72.40;;;;;;5033572;28;20479;-68
2021/03/24 01:30:44;;;;;;;18.92;9.77;;;2.00;73.40;;;;;;5034109;28;20148;-66
2021/03/24 01:33:49;;;;;;;16.00;9.57;;;1.90;73.80;;;;;;5033864;28;20045;-68
2021/03/24 01:36:53;;;;;;;17.08;8.70;;;1.80;74.70;;;;;;5031798;28;20044;-68
2021/03/24 01:39:57;;;;;;;13.18;8.07;;;1.80;74.50;;;;;;5033823;28;20049;-68
2021/03/24 01:43:07;;;;;;;10.45;6.47;;;1.80;72.30;;;;;;5033662;28;20048;-67
2021/03/24 01:46:24;;;;;;;7.60;5.03;;;1.90;71.10;;;;;;5033055;28;20044;-68
2021/03/24 01:49:35;;;;;;;9.82;5.05;;;2.00;70.30;;;;;;5032503;28;20037;-67
2021/03/24 01:52:39;;;;;;;8.65;5.22;;;2.10;69.80;;;;;;5031864;28;20038;-68
2021/03/24 01:55:44;;;;;;;9.05;5.60;;;2.20;69.40;;;;;;5032365;28;20651;-68
2021/03/24 01:58:53;;;;;;;8.25;5.32;;;2.40;68.90;;;;;;5032300;28;20041;-67
2021/03/24 02:01:58;;;;;;;9.65;5.80;;;2.30;69.90;;;;;;5032795;28;20045;-68
2021/03/24 02:05:04;;;;;;;9.10;5.68;;;2.30;71.20;;;;;;5032689;28;20041;-67
2021/03/24 02:08:27;;;;;;;12.55;6.68;;;2.30;70.90;;;;;;5031446;28;20033;-68
2021/03/24 02:11:40;;;;;;;12.32;6.22;;;2.30;70.20;;;;;;5026999;28;20040;-67
2021/03/24 02:14:44;;;;;;;;;;;2.30;70.60;;;;;;5031575;28;20048;-68
2021/03/24 02:17:50;;;;;;;15.85;8.43;;;2.30;71.10;;;;;;5031842;28;19916;-68
2021/03/24 02:21:21;;;;;;;13.18;7.43;;;2.20;72.20;;;;;;5032827;28;20048;-68
2021/03/24 02:25:07;;;;;;;18.77;8.98;;;2.10;73.20;;;;;;5032239;28;20052;-68
2021/03/24 02:28:14;;;;;;;13.65;7.57;;;1.90;74.00;;;;;;5030022;28;20041;-68
2021/03/24 02:31:22;;;;;;;18.13;9.25;;;1.80;75.10;;;;;;5030273;28;20041;-67
2021/03/24 02:34:28;;;;;;;14.32;8.18;;;1.70;75.40;;;;;;5032299;28;20044;-68
2021/03/24 02:37:35;;;;;;;16.90;7.28;;;1.70;74.90;;;;;;5030547;28;20036;-68
2021/03/24 02:40:42;;;;;;;13.32;6.90;;;1.60;75.60;;;;;;5031897;28;20044;-67
2021/03/24 02:43:46;;;;;;;8.85;5.03;;;1.60;75.50;;;;;;5032498;28;20056;-68
2021/03/24 02:46:53;;;;;;;7.53;4.22;;;1.50;74.70;;;;;;5030952;28;20033;-67
2021/03/24 02:49:58;;;;;;;7.90;4.88;;;1.50;73.50;;;;;;5031879;28;20037;-68
2021/03/24 02:53:03;;;;;;;8.98;4.22;;;1.60;74.10;;;;;;5031002;28;20026;-67
2021/03/24 02:56:21;;;;;;;8.73;5.18;;;1.50;74.90;;;;;;5031472;28;20468;-68
2021/03/24 02:59:25;;;;;;;7.63;4.50;;;1.50;74.90;;;;;;5030583;28;20049;-67
2021/03/24 03:02:30;;;;;;;11.57;5.70;;;1.50;75.20;;;;;;5030911;28;20037;-68
2021/03/24 03:05:37;;;;;;;10.75;6.20;;;1.50;75.60;;;;;;5028156;28;20048;-67
2021/03/24 03:09:02;;;;;;;15.10;6.80;;;1.50;75.50;;;;;;5018421;28;20041;-68
2021/03/24 03:12:20;;;;;;;16.50;7.55;;;1.50;75.30;;;;;;5031620;28;20511;-68
2021/03/24 03:15:39;;;;;;;15.60;8.70;;;1.50;76.20;;;;;;5029450;28;20048;-68
2021/03/24 03:18:56;;;;;;;11.57;6.57;;;1.40;76.80;;;;;;5031244;28;20041;-67
2021/03/24 03:22:05;;;;;;;15.32;7.70;;;1.40;77.80;;;;;;5030475;28;20072;-67
2021/03/24 03:25:12;;;;;;;16.00;8.63;;;1.30;78.20;;;;;;5026110;28;20049;-67
2021/03/24 03:28:18;;;;;;;13.02;7.13;;;1.30;78.50;;;;;;5029924;28;20088;-67
2021/03/24 03:31:28;;;;;;;12.75;7.30;;;1.30;79.70;;;;;;5031161;28;20074;-68
2021/03/24 03:34:34;;;;;;;20.42;9.77;;;1.20;80.10;;;;;;5031546;28;20064;-67
2021/03/24 03:37:41;;;;;;;12.20;7.22;;;1.20;80.60;;;;;;5017287;28;20048;-67
2021/03/24 03:40:46;;;;;;;18.92;11.23;;;1.20;80.70;;;;;;5030623;28;20048;-67
2021/03/24 03:43:54;;;;;;;14.73;9.38;;;1.20;81.60;;;;;;5031434;28;20056;-68
2021/03/24 03:47:07;;;;;;;18.73;8.93;;;1.20;81.70;;;;;;5030520;28;20045;-68
2021/03/24 03:50:17;;;;;;;19.92;9.90;;;1.10;82.50;;;;;;5030908;28;20044;-67
2021/03/24 03:53:22;;;;;;;19.42;11.20;;;1.10;82.60;;;;;;5020577;28;20048;-68
2021/03/24 03:56:54;;;;;;;18.85;10.00;;;1.00;82.90;;;;;;5029616;28;20048;-68
2021/03/24 04:00:10;;;;;;;22.35;10.10;;;1.00;83.30;;;;;;5019070;28;20068;-67
2021/03/24 04:03:19;;;;;;;25.08;10.85;;;1.00;83.70;;;;;;5029605;28;20117;-67
2021/03/24 04:06:37;;;;;;;15.75;9.43;;;1.10;84.30;;;;;;5028844;28;20040;-67
2021/03/24 04:09:41;;;;;;;20.08;11.70;;;1.10;83.90;;;;;;5030714;28;20048;-67
2021/03/24 04:12:46;;;;;;;17.77;10.40;;;1.10;83.50;;;;;;5030737;28;20041;-67
2021/03/24 04:15:53;;;;;;;16.02;9.90;;;1.00;84.40;;;;;;5030401;28;20476;-68
2021/03/24 04:19:05;;;;;;;18.08;10.18;;;1.00;84.10;;;;;;5031012;28;20045;-67
2021/03/24 04:22:14;;;;;;;16.48;10.13;;;1.00;84.90;;;;;;5029876;28;20044;-67
2021/03/24 04:25:42;;;;;;;16.98;9.65;;;1.00;85.10;;;;;;5030155;28;20060;-67
2021/03/24 04:28:54;;;;;;;18.13;10.02;;;0.90;85.90;;;;;;5030571;28;20060;-67
2021/03/24 04:32:01;;;;;;;17.20;9.90;;;0.90;85.50;;;;;;5030290;28;20049;-67
2021/03/24 04:35:06;;;;;;;19.63;9.88;;;0.90;86.10;;;;;;5030324;28;20037;-67
2021/03/24 04:38:52;;;;;;;19.20;9.68;;;0.90;86.80;;;;;;5029255;28;20057;-67
2021/03/24 04:41:59;;;;;;;14.77;8.95;;;0.90;86.50;;;;;;5024964;28;20116;-67
2021/03/24 04:45:27;;;;;;;16.60;9.95;;;0.80;87.70;;;;;;5029945;28;20048;-67
2021/03/24 04:48:53;;;;;;;21.00;10.75;;;0.80;87.10;;;;;;5030455;28;20046;-67
2021/03/24 04:51:58;;;;;;;16.70;9.88;;;0.70;87.50;;;;;;5029417;28;20071;-67
2021/03/24 04:55:07;;;;;;;15.02;9.65;;;0.60;90.40;;;;;;5030186;28;20061;-67
2021/03/24 04:58:29;;;;;;;19.90;10.52;;;0.50;90.50;;;;;;5030382;28;20531;-67
2021/03/24 05:01:48;;;;;;;21.42;11.38;;;0.40;90.50;;;;;;5029889;28;20048;-67
2021/03/24 05:05:13;;;;;;;18.40;9.93;;;0.30;90.90;;;;;;5030203;28;20400;-67
2021/03/24 05:08:42;;;;;;;24.70;10.70;;;0.20;91.20;;;;;;5029348;28;20040;-67
2021/03/24 05:12:06;;;;;;;19.40;10.13;;;0.20;92.20;;;;;;5029556;28;20073;-68
2021/03/24 05:15:17;;;;;;;18.77;10.00;;;0.20;93.30;;;;;;5029832;28;20491;-68
2021/03/24 05:18:22;;;;;;;19.57;10.23;;;0.20;94.30;;;;;;5030190;28;20052;-67
2021/03/24 05:21:41;;;;;;;24.63;10.60;;;0.20;93.60;;;;;;5026025;28;20056;-67
2021/03/24 05:24:47;;;;;;;19.10;10.98;;;0.30;93.40;;;;;;5033291;28;20063;-67
2021/03/24 05:28:03;;;;;;;16.30;9.90;;;0.40;93.40;;;;;;5033448;28;20041;-68
2021/03/24 05:31:17;;;;;;;18.92;10.88;;;0.40;94.10;;;;;;5032868;28;20575;-67
2021/03/24 05:34:27;;;;;;;20.13;10.45;;;0.50;93.50;;;;;;5033524;28;20044;-67
2021/03/24 05:37:32;;;;;;;23.58;11.63;;;0.50;93.40;;;;;;5031847;28;20044;-67
2021/03/24 05:40:57;;;;;;;19.25;10.85;;;0.60;93.30;;;;;;5032678;28;20044;-68
2021/03/24 05:44:35;;;;;;;23.92;11.07;;;0.60;93.80;;;;;;5033332;28;20361;-68
2021/03/24 05:47:49;;;;;;;19.90;11.65;;;0.70;94.80;;;;;;5033109;28;20045;-68
2021/03/24 05:51:12;;;;;;;19.73;12.25;;;0.80;94.50;;;;;;5030275;28;20044;-68
2021/03/24 05:54:39;;;;;;;26.60;18.83;;;0.90;93.90;;;;;;5028491;28;20396;-67
2021/03/24 05:57:55;;;;;;;21.15;12.10;;;0.90;93.90;;;;;;5029618;28;20040;-68
2021/03/24 06:01:19;;;;;;;27.65;11.88;;;2.00;94.00;;;;;;5027456;28;20057;-67
2021/03/24 06:05:12;;;;;;;17.90;11.35;;;5.30;88.80;;;;;;5027155;28;20036;-68
2021/03/24 06:08:43;;;;;;;18.00;10.13;;;8.40;75.60;;;;;;5027704;28;20045;-66
2021/03/24 06:12:07;;;;;;;22.08;10.43;;;10.90;67.70;;;;;;5028094;28;20287;-68
2021/03/24 06:15:29;;;;;;;19.65;10.20;;;12.70;61.70;;;;;;5027132;28;20045;-68
2021/03/24 06:18:42;;;;;;;18.30;10.07;;;14.00;58.90;;;;;;5002977;28;20372;-67
2021/03/24 06:22:43;;;;;;;18.77;10.38;;;15.00;54.80;;;;;;5010126;28;20052;-68
2021/03/24 06:25:54;;;;;;;16.05;9.55;;;15.00;52.50;;;;;;4958348;28;20516;-69
2021/03/24 06:28:58;;;;;;;14.25;10.60;;;12.60;54.60;;;;;;4963208;28;20061;-68
2021/03/24 06:32:21;;;;;;;15.95;9.88;;;12.40;56.50;;;;;;5021844;28;20049;-68
2021/03/24 06:35:30;;;;;;;15.20;9.02;;;13.20;55.50;;;;;;5020523;28;20049;-68
2021/03/24 06:38:55;;;;;;;15.60;10.25;;;13.60;55.00;;;;;;5002990;28;20060;-68
2021/03/24 06:42:30;;;;;;;18.85;10.27;;;14.10;53.80;;;;;;5022998;28;20064;-68
2021/03/24 06:46:21;;;;;;;18.88;9.85;;;15.30;52.60;;;;;;5019196;28;20092;-69
2021/03/24 06:49:36;;;;;;;17.45;9.27;;;16.70;50.90;;;;;;5013981;28;20585;-69
2021/03/24 06:53:08;;;;;;;13.68;9.50;;;17.60;48.80;;;;;;5021284;28;20040;-68
2021/03/24 06:56:25;;;;;;;15.37;9.50;;;18.20;47.70;;;;;;5023741;28;20044;-67
2021/03/24 07:00:15;;;;;;;12.95;8.65;;;18.50;46.60;;;;;;5021976;28;20056;-68
2021/03/24 07:03:57;;;;;;;13.38;8.85;;;18.40;45.90;;;;;;5004180;28;20037;-67
2021/03/24 07:07:46;;;;;;;14.95;9.00;;;16.50;46.70;;;;;;5019721;28;20527;-68
2021/03/24 07:11:12;;;;;;;13.50;9.13;;;16.00;47.80;;;;;;5023255;28;20052;-69
2021/03/24 07:14:33;;;;;;;12.20;8.63;;;17.10;48.30;;;;;;5020463;28;20048;-68
2021/03/24 07:18:10;;;;;;;11.95;8.32;;;17.90;46.90;;;;;;5020621;28;20036;-68
2021/03/24 07:21:33;;;;;;;13.90;8.85;;;18.70;45.40;;;;;;5021328;28;20037;-67
2021/03/24 07:25:36;;;;;;;16.33;8.20;;;18.70;44.90;;;;;;5022838;28;20487;-68
2021/03/24 07:29:05;;;;;;;13.63;6.95;;;19.80;44.10;;;;;;5020859;28;20043;-67
2021/03/24 07:32:14;;;;;;;14.68;8.63;;;19.50;43.60;;;;;;5020039;28;20071;-68
2021/03/24 07:35:52;;;;;;;9.95;7.28;;;18.10;45.60;;;;;;5026085;28;20040;-68
2021/03/24 07:39:21;;;;;;;13.27;7.65;;;18.20;45.60;;;;;;5028050;28;20048;-67
2021/03/24 07:42:55;;;;;;;10.75;8.00;;;14.40;48.40;;;;;;5026721;28;20064;-68
2021/03/24 07:46:25;;;;;;;11.90;7.05;;;13.50;51.30;;;;;;5016858;28;20064;-68
2021/03/24 07:49:39;;;;;;;11.68;6.32;;;14.80;48.90;;;;;;5025638;28;20044;-68
2021/03/24 07:53:02;;;;;;;7.78;5.25;;;16.20;47.00;;;;;;5022824;28;20036;-68
2021/03/24 07:56:28;;;;;;;10.15;7.15;;;18.20;44.60;;;;;;5028795;28;20579;-68
2021/03/24 07:59:55;;;;;;;10.70;6.22;;;17.60;44.90;;;;;;5030341;28;20045;-68
2021/03/24 08:03:06;;;;;;;9.45;5.65;;;17.90;44.40;;;;;;5004771;28;20048;-68
2021/03/24 08:06:31;;;;;;;9.48;6.47;;;19.60;43.40;;;;;;5018232;28;20044;-68
2021/03/24 08:10:06;;;;;;;7.97;4.95;;;21.10;42.30;;;;;;5027423;28;20057;-68
2021/03/24 08:13:24;;;;;;;7.78;5.75;;;21.40;42.00;;;;;;5027682;28;20495;-68
2021/03/24 08:16:37;;;;;;;6.75;5.30;;;23.00;40.10;;;;;;5017829;28;20052;-68
2021/03/24 08:19:42;;;;;;;7.53;5.03;;;20.20;38.80;;;;;;5018822;28;20032;-69
2021/03/24 08:23:13;;;;;;;10.95;6.20;;;19.70;41.40;;;;;;5026430;28;20121;-68
2021/03/24 08:26:40;;;;;;;8.98;5.85;;;21.60;40.50;;;;;;5029371;28;20757;-68
2021/03/24 08:29:47;;;;;;;7.43;5.28;;;23.90;38.60;;;;;;5007206;28;20067;-68
2021/03/24 08:33:19;;;;;;;7.45;5.47;;;21.50;39.00;;;;;;5022413;28;20053;-68
2021/03/24 08:36:55;;;;;;;7.15;5.03;;;22.90;39.70;;;;;;5020837;28;20649;-68
2021/03/24 08:40:19;;;;;;;8.82;4.53;;;23.70;38.50;;;;;;5021248;28;20062;-68
2021/03/24 08:43:44;;;;;;;6.30;3.72;;;24.40;38.00;;;;;;5025998;28;20040;-68
2021/03/24 08:47:24;;;;;;;5.70;4.13;;;26.10;35.00;;;;;;5015126;28;21894;-67
2021/03/24 08:50:37;;;;;;;5.78;3.97;;;25.70;35.30;;;;;;5019927;28;20722;-68
2021/03/24 08:53:46;;;;;;;5.57;3.97;;;24.00;35.60;;;;;;5020882;28;20040;-68
2021/03/24 08:57:05;;;;;;;7.13;4.90;;;26.10;35.30;;;;;;5020692;28;20052;-68
2021/03/24 09:00:21;;;;;;;5.32;4.00;;;22.40;36.40;;;;;;5025509;28;20479;-67
2021/03/24 09:03:57;;;;;;;6.15;4.07;;;21.90;38.40;;;;;;5026073;28;20060;-68
2021/03/24 09:07:06;;;;;;;10.65;4.25;;;21.60;36.90;;;;;;5025239;28;20060;-67
2021/03/24 09:10:22;;;;;;;10.25;4.55;;;21.70;37.40;;;;;;5026584;28;20531;-67
2021/03/24 09:13:37;;;;;;;7.78;3.72;;;23.70;37.20;;;;;;5024277;28;20129;-68
2021/03/24 09:16:50;;;;;;;5.05;3.75;;;23.60;37.50;;;;;;5025752;28;20506;-68
2021/03/24 09:20:23;;;;;;;5.20;3.85;;;26.40;37.50;;;;;;5023617;28;20660;-68
2021/03/24 09:23:35;;;;;;;7.63;4.13;;;28.40;36.20;;;;;;5022765;28;20048;-68
2021/03/24 09:27:01;;;;;;;5.77;3.03;;;28.70;34.90;;;;;;5013739;28;20056;-66
2021/03/24 09:30:18;;;;;;;5.25;3.20;;;30.60;34.30;;;;;;5025082;28;20040;-68
2021/03/24 09:33:45;;;;;;;5.57;3.10;;;31.20;33.50;;;;;;5026045;28;20416;-66
2021/03/24 09:37:01;;;;;;;5.47;3.15;;;32.10;32.50;;;;;;5025061;28;20392;-68
2021/03/24 09:40:31;;;;;;;4.93;3.25;;;30.60;32.20;;;;;;5025907;28;20036;-66
2021/03/24 09:43:42;;;;;;;3.57;2.50;;;31.10;31.70;;;;;;5025674;28;20036;-68
2021/03/24 09:46:53;;;;;;;5.38;2.40;;;32.40;31.80;;;;;;5022169;28;20487;-69
2021/03/24 09:50:13;;;;;;;;;;;33.70;31.10;;;;;;5021731;28;20112;-69
2021/03/24 09:53:27;;;;;;;3.75;2.60;;;33.40;30.90;;;;;;5022450;28;19916;-68
2021/03/24 09:56:31;;;;;;;3.83;2.85;;;34.80;30.50;;;;;;5018360;28;20051;-68
2021/03/24 09:59:35;;;;;;;4.07;2.30;;;35.00;30.50;;;;;;5022652;28;20534;-68
2021/03/24 10:03:16;;;;;;;3.88;2.38;;;35.30;31.00;;;;;;5025156;28;20038;-68
2021/03/24 10:06:48;;;;;;;6.28;2.70;;;35.70;30.50;;;;;;5019166;28;20063;-68
2021/03/24 10:10:28;;;;;;;8.10;2.50;;;36.10;29.90;;;;;;5022643;28;20064;-69
2021/03/24 10:13:45;;;;;;;6.20;2.50;;;36.00;30.20;;;;;;5025930;28;20056;-68
2021/03/24 10:16:59;;;;;;;3.95;2.60;;;35.80;30.00;;;;;;5021209;28;20064;-69
2021/03/24 10:20:21;;;;;;;5.72;2.60;;;37.00;30.20;;;;;;5021079;28;20045;-68
2021/03/24 10:24:03;;;;;;;5.53;2.30;;;37.80;30.50;;;;;;5021079;28;20032;-68
2021/03/24 10:27:19;;;;;;;4.15;2.03;;;38.10;29.60;;;;;;5019403;28;20044;-68
2021/03/24 10:30:33;;;;;;;2.60;1.70;;;38.10;29.60;;;;;;5023479;28;20520;-68
2021/03/24 10:33:45;;;;;;;3.65;1.95;;;38.20;29.40;;;;;;5022833;28;20039;-68
2021/03/24 10:36:59;;;;;;;2.75;1.95;;;36.10;29.60;;;;;;5016328;28;20056;-68
2021/03/24 10:40:30;;;;;;;4.18;2.00;;;34.60;30.30;;;;;;5013971;28;20040;-68
2021/03/24 10:43:53;;;;;;;5.32;2.00;;;35.40;29.80;;;;;;5021023;28;20503;-68
2021/03/24 10:47:10;;;;;;;8.02;2.08;;;36.10;29.20;;;;;;5017307;28;20056;-68
2021/03/24 10:50:48;;;;;;;7.60;2.20;;;36.90;28.70;;;;;;5017041;28;20052;-67
2021/03/24 10:54:10;;;;;;;4.38;1.88;;;36.50;29.20;;;;;;5010543;28;20048;-67
2021/03/24 10:57:26;;;;;;;5.13;2.38;;;35.70;29.60;;;;;;5013124;28;20052;-66
2021/03/24 11:00:36;;;;;;;4.95;2.60;;;36.70;29.40;;;;;;5017233;28;20048;-68
2021/03/24 11:04:04;;;;;;;3.55;2.45;;;37.10;30.00;;;;;;5017030;28;20036;-68
2021/03/24 11:07:30;;;;;;;4.05;3.00;;;37.40;29.50;;;;;;5025844;28;20044;-67
2021/03/24 11:10:38;;;;;;;5.10;3.22;;;36.60;29.90;;;;;;5027045;28;20503;-68
2021/03/24 11:14:04;;;;;;;3.80;3.00;;;35.70;29.60;;;;;;5024922;28;20040;-68
2021/03/24 11:17:19;;;;;;;5.03;3.05;;;36.00;30.10;;;;;;5025120;28;20048;-68
2021/03/24 11:20:39;;;;;;;5.28;3.42;;;36.20;29.40;;;;;;5022900;28;20052;-69
2021/03/24 11:23:49;;;;;;;7.05;4.10;;;35.90;30.00;;;;;;5030114;28;20476;-68
2021/03/24 11:27:05;;;;;;;6.10;3.88;;;31.50;29.60;;;;;;5028278;28;20056;-67
2021/03/24 11:30:31;;;;;;;5.70;3.63;;;30.60;32.10;;;;;;5029520;28;20040;-68
2021/03/24 11:33:42;;;;;;;6.10;3.58;;;31.70;31.30;;;;;;5026739;28;20050;-68
2021/03/24 11:36:54;;;;;;;5.25;3.28;;;32.40;32.30;;;;;;5026293;28;20364;-68
2021/03/24 11:40:18;;;;;;;7.40;3.38;;;34.30;31.30;;;;;;5028049;28;20507;-68
2021/03/24 11:43:29;;;;;;;5.60;3.70;;;35.30;31.30;;;;;;5028180;28;20495;-68
2021/03/24 11:46:52;;;;;;;9.02;4.05;;;33.40;29.10;;;;;;5025106;28;20523;-68
2021/03/24 11:50:06;;;;;;;7.43;3.53;;;34.20;30.90;;;;;;5028937;28;20045;-68
2021/03/24 11:53:43;;;;;;;4.97;3.50;;;35.00;31.20;;;;;;5021866;28;20048;-68
2021/03/24 11:57:24;;;;;;;6.82;3.88;;;34.60;31.40;;;;;;5016491;28;20121;-68
2021/03/24 12:01:01;;;;;;;6.20;4.03;;;32.60;31.50;;;;;;5023209;28;20275;-69
2021/03/24 12:04:11;;;;;;;6.53;4.25;;;31.90;31.70;;;;;;5026507;28;20048;-68
2021/03/24 12:07:26;;;;;;;8.68;4.65;;;32.40;32.10;;;;;;5025292;28;20048;-68
2021/03/24 12:10:41;;;;;;;7.97;4.28;;;32.40;32.70;;;;;;5023646;28;20471;-68
2021/03/24 12:13:46;;;;;;;9.98;4.95;;;31.00;33.10;;;;;;5024262;28;20056;-68
2021/03/24 12:17:01;;;;;;;7.70;5.18;;;31.40;32.70;;;;;;5021056;28;20636;-69
2021/03/24 12:20:17;;;;;;;7.10;5.38;;;27.80;33.20;;;;;;5019326;28;20045;-68
2021/03/24 12:23:23;;;;;;;9.23;5.30;;;26.20;32.20;;;;;;5020744;28;20041;-66
2021/03/24 12:26:38;;;;;;;10.93;6.03;;;27.40;35.20;;;;;;5017556;28;20049;-67
2021/03/24 12:29:55;;;;;;;8.40;6.25;;;25.10;33.10;;;;;;5026740;28;20052;-69
2021/03/24 12:33:21;;;;;;;8.60;5.47;;;26.30;35.70;;;;;;5021289;28;20060;-68
2021/03/24 12:36:29;;;;;;;11.07;5.85;;;29.80;33.50;;;;;;5030361;28;20052;-68
2021/03/24 12:39:38;;;;;;;9.27;4.38;;;32.20;31.70;;;;;;5024593;28;20041;-68
2021/03/24 12:42:43;;;;;;;8.27;5.90;;;33.90;31.00;;;;;;5025402;28;20053;-68
2021/03/24 12:45:47;;;;;;;8.88;5.55;;;34.80;31.30;;;;;;5030182;28;20512;-68
2021/03/24 12:48:59;;;;;;;9.10;5.60;;;35.00;31.10;;;;;;5025829;28;20052;-68
2021/03/24 12:52:30;;;;;;;7.28;5.65;;;35.20;30.00;;;;;;5028552;28;20044;-67
2021/03/24 12:55:35;;;;;;;7.35;5.63;;;34.90;29.70;;;;;;5012666;28;20044;-68
2021/03/24 12:58:53;;;;;;;6.90;6.05;;;33.70;31.50;;;;;;5026612;28;20499;-67
2021/03/24 13:02:25;;;;;;;7.38;6.38;;;33.30;31.60;;;;;;5022327;28;20057;-68
2021/03/24 13:05:35;;;;;;;8.18;6.30;;;33.00;32.40;;;;;;5022503;28;20040;-67
2021/03/24 13:08:53;;;;;;;;;;;33.00;32.40;;;;;;5025619;28;20048;-68
2021/03/24 13:12:06;;;;;;;13.27;6.93;;;33.00;31.40;;;;;;5026263;28;20383;-67
2021/03/24 13:15:35;;;;;;;9.45;6.03;;;28.60;32.50;;;;;;5022015;28;20088;-67
2021/03/24 13:18:55;;;;;;;11.98;7.43;;;29.30;34.30;;;;;;5025224;28;20045;-67
2021/03/24 13:22:41;;;;;;;10.65;6.97;;;30.40;33.50;;;;;;5026051;28;20503;-68
2021/03/24 13:26:18;;;;;;;11.25;6.72;;;30.50;33.10;;;;;;5008875;28;20048;-67
2021/03/24 13:29:45;;;;;;;13.38;7.45;;;30.40;33.70;;;;;;5021792;28;20057;-67
2021/03/24 13:33:12;;;;;;;13.05;7.68;;;30.10;33.80;;;;;;5027267;28;20487;-67
2021/03/24 13:36:23;;;;;;;11.20;8.57;;;30.90;33.80;;;;;;5027754;28;20044;-68
2021/03/24 13:39:53;;;;;;;10.18;7.50;;;30.70;34.10;;;;;;5029196;28;20052;-69
2021/03/24 13:43:07;;;;;;;10.00;7.38;;;30.70;34.00;;;;;;5009749;28;20064;-67
2021/03/24 13:46:21;;;;;;;12.57;7.82;;;30.50;33.30;;;;;;5022130;28;20060;-67
2021/03/24 13:49:40;;;;;;;11.20;8.70;;;30.40;34.50;;;;;;5030911;28;20041;-68
2021/03/24 13:52:51;;;;;;;11.82;9.07;;;30.10;34.60;;;;;;5027725;28;20048;-68
2021/03/24 13:56:16;;;;;;;12.15;8.07;;;30.00;34.40;;;;;;5026894;28;20036;-67
2021/03/24 13:59:27;;;;;;;12.52;8.65;;;26.70;34.70;;;;;;5029696;28;20053;-67
2021/03/24 14:02:52;;;;;;;16.50;8.23;;;27.00;36.40;;;;;;5027863;28;20032;-67
2021/03/24 14:06:29;;;;;;;18.33;8.43;;;28.10;36.30;;;;;;5028802;28;20040;-67
2021/03/24 14:09:42;;;;;;;12.40;8.05;;;28.90;36.10;;;;;;5028862;28;20041;-67
2021/03/24 14:13:05;;;;;;;12.60;8.18;;;29.30;35.60;;;;;;5029843;28;20036;-67
2021/03/24 14:16:22;;;;;;;9.43;7.53;;;28.90;35.10;;;;;;5029883;28;20048;-67
2021/03/24 14:19:58;;;;;;;13.63;8.43;;;28.80;36.10;;;;;;5037533;28;20032;-67
2021/03/24 14:23:20;;;;;;;13.88;8.00;;;27.70;34.70;;;;;;5030084;28;20056;-68
2021/03/24 14:26:32;;;;;;;10.05;7.93;;;27.30;36.80;;;;;;5031153;28;20040;-67
2021/03/24 14:29:56;;;;;;;18.75;8.77;;;27.40;36.60;;;;;;5030827;28;20384;-68
2021/03/24 14:33:30;;;;;;;11.63;8.68;;;26.80;37.20;;;;;;5028361;28;20054;-68
2021/03/24 14:36:52;;;;;;;12.52;8.10;;;26.30;37.00;;;;;;5024717;28;20052;-67
2021/03/24 14:40:14;;;;;;;17.85;9.52;;;26.20;37.60;;;;;;5020059;28;20040;-67
2021/03/24 14:43:53;;;;;;;14.73;8.70;;;25.60;38.20;;;;;;5023716;28;20499;-66
2021/03/24 14:47:16;;;;;;;15.80;9.52;;;24.70;40.00;;;;;;5014942;28;20044;-67
2021/03/24 14:50:56;;;;;;;14.43;9.18;;;23.70;40.10;;;;;;5030044;28;20083;-67
2021/03/24 14:54:28;;;;;;;12.70;9.25;;;22.90;41.90;;;;;;5001940;28;20040;-66
2021/03/24 14:57:37;;;;;;;16.90;9.07;;;22.20;43.10;;;;;;5024571;28;20412;-67
2021/03/24 15:00:42;;;;;;;16.88;10.15;;;21.60;43.60;;;;;;5029900;28;20040;-66
2021/03/24 15:03:51;;;;;;;16.23;9.88;;;21.30;44.40;;;;;;5018762;28;20041;-68
2021/03/24 15:06:56;;;;;;;16.38;10.23;;;20.90;45.10;;;;;;5025269;28;20052;-67
2021/03/24 15:10:22;;;;;;;14.48;9.07;;;20.70;45.00;;;;;;5028923;28;20052;-67
2021/03/24 15:13:42;;;;;;;18.25;8.90;;;20.40;45.70;;;;;;5029720;28;20049;-67
2021/03/24 15:16:54;;;;;;;24.70;10.35;;;20.30;45.40;;;;;;5028787;28;20057;-68
2021/03/24 15:20:06;;;;;;;16.35;8.85;;;20.00;45.80;;;;;;5029162;28;20044;-67
2021/03/24 15:23:40;;;;;;;18.10;9.18;;;20.00;46.20;;;;;;5027391;28;20060;-69
2021/03/24 15:27:04;;;;;;;15.38;9.95;;;19.80;46.30;;;;;;5029236;28;20048;-69
2021/03/24 15:30:24;;;;;;;17.30;9.27;;;19.40;46.70;;;;;;5028520;28;20048;-69
2021/03/24 15:33:51;;;;;;;17.60;8.70;;;19.20;47.80;;;;;;5025188;28;20486;-67
2021/03/24 15:37:24;;;;;;;19.00;10.32;;;19.10;48.20;;;;;;5024271;28;20052;-69
2021/03/24 15:40:41;;;;;;;18.13;10.45;;;19.00;48.60;;;;;;5027272;28;20475;-68
2021/03/24 15:44:23;;;;;;;17.95;10.50;;;19.00;49.20;;;;;;5013333;28;20049;-68
2021/03/24 15:47:41;;;;;;;17.48;9.65;;;18.70;49.80;;;;;;5026427;28;20041;-68
2021/03/24 15:50:49;;;;;;;22.60;10.80;;;18.50;50.50;;;;;;5029808;28;20052;-68
2021/03/24 15:53:56;;;;;;;16.33;8.95;;;18.30;49.90;;;;;;5029098;28;20100;-67
2021/03/24 15:57:13;;;;;;;14.32;8.90;;;18.20;50.40;;;;;;5028493;28;20044;-68
2021/03/24 16:00:41;;;;;;;14.48;9.00;;;18.20;51.40;;;;;;5028776;28;20040;-68
2021/03/24 16:04:23;;;;;;;19.15;8.95;;;18.10;52.00;;;;;;5026237;28;20041;-68
2021/03/24 16:07:48;;;;;;;14.15;7.55;;;18.00;52.70;;;;;;5023374;28;20052;-68
2021/03/24 16:11:06;;;;;;;11.32;6.90;;;17.90;52.70;;;;;;5002038;28;20071;-69
2021/03/24 16:14:40;;;;;;;11.60;7.22;;;17.70;54.50;;;;;;5023554;28;20052;-68
2021/03/24 16:17:59;;;;;;;13.15;5.80;;;17.50;56.40;;;;;;5023278;28;20389;-69
2021/03/24 16:21:37;;;;;;;9.23;5.00;;;17.20;58.60;;;;;;5019463;28;20048;-68
2021/03/24 16:24:51;;;;;;;9.57;4.57;;;17.00;60.50;;;;;;5021832;28;20380;-68
2021/03/24 16:28:23;;;;;;;11.55;4.90;;;16.80;61.70;;;;;;5022673;28;20064;-68
2021/03/24 16:32:02;;;;;;;10.65;4.47;;;16.60;62.70;;;;;;5021819;28;20044;-68
2021/03/24 16:35:25;;;;;;;8.75;4.18;;;16.40;64.00;;;;;;5017723;28;20614;-68
2021/03/24 16:39:07;;;;;;;11.63;4.05;;;16.20;65.00;;;;;;5021659;28;21360;-68
2021/03/24 16:42:38;;;;;;;11.27;4.35;;;16.10;66.60;;;;;;5023934;28;20043;-68
2021/03/24 16:46:09;;;;;;;10.88;3.75;;;15.80;67.80;;;;;;5023092;28;20404;-68
2021/03/24 16:49:47;;;;;;;8.68;4.10;;;15.60;69.30;;;;;;5021558;28;20041;-68
2021/03/24 16:53:19;;;;;;;9.10;3.90;;;15.40;71.10;;;;;;5020982;28;20052;-69
2021/03/24 16:56:38;;;;;;;8.52;4.28;;;15.20;72.00;;;;;;5019955;28;20040;-68
2021/03/24 17:00:04;;;;;;;4.25;3.35;;;15.00;73.70;;;;;;5016830;28;20060;-68
2021/03/24 17:03:36;;;;;;;5.70;3.35;;;14.80;75.30;;;;;;5021675;28;20539;-68
2021/03/24 17:06:57;;;;;;;7.88;4.07;;;14.70;77.60;;;;;;5020489;28;20056;-68